sensor_id;sensor_type;location;lat;lon;timestamp;P1;durP1;ratioP1;P2;durP2;ratioP2
75941;SDS011;64622;46.220;19.878;2023-10-09T00:01:43;7.23;;;1.77;;
75941;SDS011;64622;46.220;19.878;2023-10-09T00:04:12;6.50;;;1.58;;
75941;SDS011;64622;46.220;19.878;2023-10-09T00:06:42;8.23;;;1.70;;
75941;SDS011;64622;46.220;19.878;2023-10-09T00:09:09;8.60;;;1.85;;
75941;SDS011;64622;46.220;19.878;2023-10-09T00:11:57;7.53;;;1.60;;
75941;SDS011;64622;46.220;19.878;2023-10-09T00:14:24;6.90;;;1.47;;
75941;SDS011;64622;46.220;19.878;2023-10-09T00:16:52;7.62;;;1.67;;
75941;SDS011;64622;46.220;19.878;2023-10-09T00:19:37;6.07;;;1.45;;
75941;SDS011;64622;46.220;19.878;2023-10-09T00:22:03;7.97;;;1.83;;
75941;SDS011;64622;46.220;19.878;2023-10-09T00:24:31;5.85;;;1.40;;
75941;SDS011;64622;46.220;19.878;2023-10-09T00:26:59;5.73;;;1.30;;
75941;SDS011;64622;46.220;19.878;2023-10-09T00:29:45;7.22;;;1.37;;
75941;SDS011;64622;46.220;19.878;2023-10-09T00:32:12;7.78;;;1.40;;
75941;SDS011;64622;46.220;19.878;2023-10-09T00:34:59;5.75;;;1.35;;
75941;SDS011;64622;46.220;19.878;2023-10-09T00:37:40;6.53;;;1.23;;
75941;SDS011;64622;46.220;19.878;2023-10-09T00:40:06;6.00;;;1.10;;
75941;SDS011;64622;46.220;19.878;2023-10-09T00:42:46;6.93;;;1.25;;
75941;SDS011;64622;46.220;19.878;2023-10-09T00:45:14;6.07;;;1.35;;
75941;SDS011;64622;46.220;19.878;2023-10-09T00:47:52;5.87;;;1.30;;
75941;SDS011;64622;46.220;19.878;2023-10-09T00:50:24;6.45;;;1.30;;
75941;SDS011;64622;46.220;19.878;2023-10-09T00:53:01;6.80;;;1.20;;
75941;SDS011;64622;46.220;19.878;2023-10-09T00:55:34;4.65;;;0.98;;
75941;SDS011;64622;46.220;19.878;2023-10-09T00:58:12;4.93;;;0.80;;
75941;SDS011;64622;46.220;19.878;2023-10-09T01:00:40;6.35;;;1.23;;
75941;SDS011;64622;46.220;19.878;2023-10-09T01:03:11;5.35;;;1.05;;
75941;SDS011;64622;46.220;19.878;2023-10-09T01:05:56;5.35;;;0.93;;
75941;SDS011;64622;46.220;19.878;2023-10-09T01:08:42;5.43;;;1.02;;
75941;SDS011;64622;46.220;19.878;2023-10-09T01:11:12;5.35;;;1.00;;
75941;SDS011;64622;46.220;19.878;2023-10-09T01:13:49;5.80;;;1.25;;
75941;SDS011;64622;46.220;19.878;2023-10-09T01:16:17;4.47;;;0.90;;
75941;SDS011;64622;46.220;19.878;2023-10-09T01:18:44;5.17;;;1.07;;
75941;SDS011;64622;46.220;19.878;2023-10-09T01:21:19;6.93;;;0.98;;
75941;SDS011;64622;46.220;19.878;2023-10-09T01:23:53;5.97;;;1.02;;
75941;SDS011;64622;46.220;19.878;2023-10-09T01:26:29;5.32;;;1.00;;
75941;SDS011;64622;46.220;19.878;2023-10-09T01:29:06;4.32;;;0.85;;
75941;SDS011;64622;46.220;19.878;2023-10-09T01:31:40;4.57;;;0.90;;
75941;SDS011;64622;46.220;19.878;2023-10-09T01:34:32;5.68;;;0.90;;
75941;SDS011;64622;46.220;19.878;2023-10-09T01:37:19;4.78;;;0.70;;
75941;SDS011;64622;46.220;19.878;2023-10-09T01:39:55;5.03;;;0.80;;
75941;SDS011;64622;46.220;19.878;2023-10-09T01:42:45;4.45;;;0.85;;
75941;SDS011;64622;46.220;19.878;2023-10-09T01:45:12;4.57;;;0.80;;
75941;SDS011;64622;46.220;19.878;2023-10-09T01:47:45;4.97;;;0.98;;
75941;SDS011;64622;46.220;19.878;2023-10-09T01:50:17;6.18;;;1.10;;
75941;SDS011;64622;46.220;19.878;2023-10-09T01:52:46;5.15;;;0.93;;
75941;SDS011;64622;46.220;19.878;2023-10-09T01:55:13;4.65;;;0.93;;
75941;SDS011;64622;46.220;19.878;2023-10-09T01:57:59;4.67;;;1.00;;
75941;SDS011;64622;46.220;19.878;2023-10-09T02:00:34;4.97;;;1.02;;
75941;SDS011;64622;46.220;19.878;2023-10-09T02:03:15;4.97;;;1.10;;
75941;SDS011;64622;46.220;19.878;2023-10-09T02:05:42;6.65;;;1.10;;
75941;SDS011;64622;46.220;19.878;2023-10-09T02:08:08;4.65;;;0.90;;
75941;SDS011;64622;46.220;19.878;2023-10-09T02:10:36;4.77;;;1.13;;
75941;SDS011;64622;46.220;19.878;2023-10-09T02:13:05;5.78;;;1.30;;
75941;SDS011;64622;46.220;19.878;2023-10-09T02:15:33;5.60;;;1.25;;
75941;SDS011;64622;46.220;19.878;2023-10-09T02:18:10;5.10;;;0.88;;
75941;SDS011;64622;46.220;19.878;2023-10-09T02:20:44;6.15;;;0.85;;
75941;SDS011;64622;46.220;19.878;2023-10-09T02:23:12;5.60;;;0.90;;
75941;SDS011;64622;46.220;19.878;2023-10-09T02:25:40;10.07;;;1.40;;
75941;SDS011;64622;46.220;19.878;2023-10-09T02:28:10;6.53;;;1.35;;
75941;SDS011;64622;46.220;19.878;2023-10-09T02:30:46;4.25;;;1.10;;
75941;SDS011;64622;46.220;19.878;2023-10-09T02:33:17;4.28;;;0.95;;
75941;SDS011;64622;46.220;19.878;2023-10-09T02:35:45;5.25;;;1.25;;
75941;SDS011;64622;46.220;19.878;2023-10-09T02:38:17;7.28;;;1.20;;
75941;SDS011;64622;46.220;19.878;2023-10-09T02:40:43;5.75;;;1.00;;
75941;SDS011;64622;46.220;19.878;2023-10-09T02:43:34;6.75;;;1.20;;
75941;SDS011;64622;46.220;19.878;2023-10-09T02:46:11;5.78;;;1.02;;
75941;SDS011;64622;46.220;19.878;2023-10-09T02:48:45;6.70;;;1.10;;
75941;SDS011;64622;46.220;19.878;2023-10-09T02:51:19;5.53;;;1.25;;
75941;SDS011;64622;46.220;19.878;2023-10-09T02:54:09;5.70;;;1.27;;
75941;SDS011;64622;46.220;19.878;2023-10-09T02:56:45;4.93;;;1.00;;
75941;SDS011;64622;46.220;19.878;2023-10-09T02:59:23;9.52;;;1.33;;
75941;SDS011;64622;46.220;19.878;2023-10-09T03:01:50;6.10;;;0.90;;
75941;SDS011;64622;46.220;19.878;2023-10-09T03:04:19;5.07;;;1.20;;
75941;SDS011;64622;46.220;19.878;2023-10-09T03:06:49;5.47;;;1.40;;
75941;SDS011;64622;46.220;19.878;2023-10-09T03:09:17;7.18;;;1.58;;
75941;SDS011;64622;46.220;19.878;2023-10-09T03:11:45;5.65;;;1.10;;
75941;SDS011;64622;46.220;19.878;2023-10-09T03:14:14;6.97;;;1.10;;
75941;SDS011;64622;46.220;19.878;2023-10-09T03:16:43;7.82;;;2.40;;
75941;SDS011;64622;46.220;19.878;2023-10-09T03:19:09;6.47;;;1.42;;
75941;SDS011;64622;46.220;19.878;2023-10-09T03:21:37;6.90;;;1.20;;
75941;SDS011;64622;46.220;19.878;2023-10-09T03:24:03;6.30;;;1.12;;
75941;SDS011;64622;46.220;19.878;2023-10-09T03:26:31;6.50;;;1.53;;
75941;SDS011;64622;46.220;19.878;2023-10-09T03:28:58;5.20;;;1.40;;
75941;SDS011;64622;46.220;19.878;2023-10-09T03:31:28;9.85;;;1.27;;
75941;SDS011;64622;46.220;19.878;2023-10-09T03:33:56;5.53;;;1.45;;
75941;SDS011;64622;46.220;19.878;2023-10-09T03:36:23;5.05;;;1.30;;
75941;SDS011;64622;46.220;19.878;2023-10-09T03:38:52;5.62;;;1.27;;
75941;SDS011;64622;46.220;19.878;2023-10-09T03:41:25;5.30;;;1.00;;
75941;SDS011;64622;46.220;19.878;2023-10-09T03:43:55;9.38;;;1.17;;
75941;SDS011;64622;46.220;19.878;2023-10-09T03:46:21;6.00;;;1.08;;
75941;SDS011;64622;46.220;19.878;2023-10-09T03:48:52;6.40;;;1.10;;
75941;SDS011;64622;46.220;19.878;2023-10-09T03:51:22;5.13;;;1.20;;
75941;SDS011;64622;46.220;19.878;2023-10-09T03:53:50;5.78;;;1.15;;
75941;SDS011;64622;46.220;19.878;2023-10-09T03:56:19;4.97;;;1.20;;
75941;SDS011;64622;46.220;19.878;2023-10-09T03:58:48;5.82;;;1.62;;
75941;SDS011;64622;46.220;19.878;2023-10-09T04:03:49;6.65;;;1.40;;
75941;SDS011;64622;46.220;19.878;2023-10-09T04:06:21;7.87;;;1.52;;
75941;SDS011;64622;46.220;19.878;2023-10-09T04:08:48;5.75;;;1.25;;
75941;SDS011;64622;46.220;19.878;2023-10-09T04:11:17;6.35;;;1.42;;
75941;SDS011;64622;46.220;19.878;2023-10-09T04:13:44;5.90;;;1.17;;
75941;SDS011;64622;46.220;19.878;2023-10-09T04:16:15;6.78;;;1.20;;
75941;SDS011;64622;46.220;19.878;2023-10-09T04:18:57;7.55;;;1.77;;
75941;SDS011;64622;46.220;19.878;2023-10-09T04:21:25;5.90;;;1.50;;
75941;SDS011;64622;46.220;19.878;2023-10-09T04:24:05;6.75;;;1.55;;
75941;SDS011;64622;46.220;19.878;2023-10-09T04:26:49;7.45;;;1.30;;
75941;SDS011;64622;46.220;19.878;2023-10-09T04:29:22;10.82;;;1.45;;
75941;SDS011;64622;46.220;19.878;2023-10-09T04:31:53;7.07;;;1.33;;
75941;SDS011;64622;46.220;19.878;2023-10-09T04:34:24;6.35;;;1.30;;
75941;SDS011;64622;46.220;19.878;2023-10-09T04:36:55;8.98;;;1.85;;
75941;SDS011;64622;46.220;19.878;2023-10-09T04:39:41;4.30;;;0.90;;
75941;SDS011;64622;46.220;19.878;2023-10-09T04:42:28;7.27;;;1.43;;
75941;SDS011;64622;46.220;19.878;2023-10-09T04:45:06;8.45;;;1.75;;
75941;SDS011;64622;46.220;19.878;2023-10-09T04:47:34;6.72;;;1.55;;
75941;SDS011;64622;46.220;19.878;2023-10-09T04:50:05;6.03;;;1.67;;
75941;SDS011;64622;46.220;19.878;2023-10-09T04:52:36;8.80;;;1.73;;
75941;SDS011;64622;46.220;19.878;2023-10-09T04:55:02;6.80;;;2.00;;
75941;SDS011;64622;46.220;19.878;2023-10-09T04:57:42;6.82;;;1.50;;
75941;SDS011;64622;46.220;19.878;2023-10-09T05:00:14;11.80;;;1.62;;
75941;SDS011;64622;46.220;19.878;2023-10-09T05:02:57;11.12;;;1.83;;
75941;SDS011;64622;46.220;19.878;2023-10-09T05:05:31;6.65;;;1.35;;
75941;SDS011;64622;46.220;19.878;2023-10-09T05:08:13;7.07;;;1.67;;
75941;SDS011;64622;46.220;19.878;2023-10-09T05:11:00;6.95;;;1.50;;
75941;SDS011;64622;46.220;19.878;2023-10-09T05:13:28;11.98;;;1.90;;
75941;SDS011;64622;46.220;19.878;2023-10-09T05:16:08;9.25;;;1.73;;
75941;SDS011;64622;46.220;19.878;2023-10-09T05:19:01;11.48;;;1.67;;
75941;SDS011;64622;46.220;19.878;2023-10-09T05:21:35;6.67;;;1.33;;
75941;SDS011;64622;46.220;19.878;2023-10-09T05:24:03;6.37;;;1.67;;
75941;SDS011;64622;46.220;19.878;2023-10-09T05:26:49;7.22;;;1.40;;
75941;SDS011;64622;46.220;19.878;2023-10-09T05:34:39;6.30;;;1.40;;
75941;SDS011;64622;46.220;19.878;2023-10-09T05:37:31;9.18;;;1.58;;
75941;SDS011;64622;46.220;19.878;2023-10-09T05:40:00;7.32;;;1.33;;
75941;SDS011;64622;46.220;19.878;2023-10-09T05:42:34;6.80;;;1.70;;
75941;SDS011;64622;46.220;19.878;2023-10-09T05:47:45;6.47;;;1.50;;
75941;SDS011;64622;46.220;19.878;2023-10-09T05:50:30;7.72;;;1.48;;
75941;SDS011;64622;46.220;19.878;2023-10-09T05:53:01;10.23;;;1.55;;
75941;SDS011;64622;46.220;19.878;2023-10-09T05:55:28;8.52;;;1.30;;
75941;SDS011;64622;46.220;19.878;2023-10-09T05:58:14;8.00;;;1.70;;
75941;SDS011;64622;46.220;19.878;2023-10-09T06:00:59;8.00;;;1.70;;
75941;SDS011;64622;46.220;19.878;2023-10-09T06:03:44;8.45;;;1.80;;
75941;SDS011;64622;46.220;19.878;2023-10-09T06:06:16;9.32;;;1.83;;
75941;SDS011;64622;46.220;19.878;2023-10-09T06:09:02;6.78;;;1.65;;
75941;SDS011;64622;46.220;19.878;2023-10-09T06:11:42;9.35;;;1.70;;
75941;SDS011;64622;46.220;19.878;2023-10-09T06:14:33;9.27;;;1.70;;
75941;SDS011;64622;46.220;19.878;2023-10-09T06:17:02;8.25;;;1.62;;
75941;SDS011;64622;46.220;19.878;2023-10-09T06:19:49;6.68;;;1.30;;
75941;SDS011;64622;46.220;19.878;2023-10-09T06:22:16;8.65;;;1.67;;
75941;SDS011;64622;46.220;19.878;2023-10-09T06:25:01;4.55;;;1.15;;
75941;SDS011;64622;46.220;19.878;2023-10-09T06:27:35;5.00;;;1.17;;
75941;SDS011;64622;46.220;19.878;2023-10-09T06:30:01;8.05;;;1.40;;
75941;SDS011;64622;46.220;19.878;2023-10-09T06:32:43;6.05;;;1.08;;
75941;SDS011;64622;46.220;19.878;2023-10-09T06:35:24;7.25;;;1.30;;
75941;SDS011;64622;46.220;19.878;2023-10-09T06:37:59;7.62;;;1.08;;
75941;SDS011;64622;46.220;19.878;2023-10-09T06:40:33;7.20;;;1.17;;
75941;SDS011;64622;46.220;19.878;2023-10-09T06:43:22;9.50;;;1.02;;
75941;SDS011;64622;46.220;19.878;2023-10-09T06:45:50;9.40;;;1.37;;
75941;SDS011;64622;46.220;19.878;2023-10-09T06:48:21;6.32;;;1.20;;
75941;SDS011;64622;46.220;19.878;2023-10-09T06:51:07;6.25;;;1.25;;
75941;SDS011;64622;46.220;19.878;2023-10-09T06:53:50;6.73;;;1.37;;
75941;SDS011;64622;46.220;19.878;2023-10-09T06:59:02;5.75;;;1.00;;
75941;SDS011;64622;46.220;19.878;2023-10-09T07:01:30;7.28;;;1.10;;
75941;SDS011;64622;46.220;19.878;2023-10-09T07:04:10;4.78;;;0.93;;
75941;SDS011;64622;46.220;19.878;2023-10-09T07:06:56;10.27;;;1.10;;
75941;SDS011;64622;46.220;19.878;2023-10-09T07:09:23;5.80;;;0.90;;
75941;SDS011;64622;46.220;19.878;2023-10-09T07:11:49;6.12;;;1.25;;
75941;SDS011;64622;46.220;19.878;2023-10-09T07:14:18;7.57;;;1.33;;
75941;SDS011;64622;46.220;19.878;2023-10-09T07:17:03;6.78;;;0.98;;
75941;SDS011;64622;46.220;19.878;2023-10-09T07:19:42;5.97;;;1.13;;
75941;SDS011;64622;46.220;19.878;2023-10-09T07:22:09;5.70;;;1.12;;
75941;SDS011;64622;46.220;19.878;2023-10-09T07:24:50;10.13;;;1.42;;
75941;SDS011;64622;46.220;19.878;2023-10-09T07:27:40;5.55;;;0.90;;
75941;SDS011;64622;46.220;19.878;2023-10-09T07:30:15;4.40;;;0.82;;
75941;SDS011;64622;46.220;19.878;2023-10-09T07:32:57;2.93;;;0.50;;
75941;SDS011;64622;46.220;19.878;2023-10-09T07:35:51;4.45;;;0.70;;
75941;SDS011;64622;46.220;19.878;2023-10-09T07:38:24;4.90;;;0.98;;
75941;SDS011;64622;46.220;19.878;2023-10-09T07:41:02;4.40;;;0.50;;
75941;SDS011;64622;46.220;19.878;2023-10-09T07:43:32;5.70;;;0.80;;
75941;SDS011;64622;46.220;19.878;2023-10-09T07:46:06;5.07;;;0.80;;
75941;SDS011;64622;46.220;19.878;2023-10-09T07:48:51;4.87;;;0.82;;
75941;SDS011;64622;46.220;19.878;2023-10-09T07:51:19;4.78;;;0.80;;
75941;SDS011;64622;46.220;19.878;2023-10-09T07:54:06;6.12;;;0.90;;
75941;SDS011;64622;46.220;19.878;2023-10-09T07:56:39;4.15;;;0.62;;
75941;SDS011;64622;46.220;19.878;2023-10-09T07:59:13;3.33;;;0.50;;
75941;SDS011;64622;46.220;19.878;2023-10-09T08:01:44;5.85;;;0.62;;
75941;SDS011;64622;46.220;19.878;2023-10-09T08:04:19;5.45;;;0.60;;
75941;SDS011;64622;46.220;19.878;2023-10-09T08:07:09;5.05;;;0.70;;
75941;SDS011;64622;46.220;19.878;2023-10-09T08:09:45;5.28;;;0.60;;
75941;SDS011;64622;46.220;19.878;2023-10-09T08:12:13;5.63;;;0.80;;
75941;SDS011;64622;46.220;19.878;2023-10-09T08:15:02;4.70;;;0.93;;
75941;SDS011;64622;46.220;19.878;2023-10-09T08:18:00;5.05;;;0.88;;
75941;SDS011;64622;46.220;19.878;2023-10-09T08:20:36;6.15;;;0.60;;
75941;SDS011;64622;46.220;19.878;2023-10-09T08:23:22;8.88;;;0.73;;
75941;SDS011;64622;46.220;19.878;2023-10-09T08:26:02;4.13;;;0.50;;
75941;SDS011;64622;46.220;19.878;2023-10-09T08:28:41;6.82;;;1.00;;
75941;SDS011;64622;46.220;19.878;2023-10-09T08:31:13;3.75;;;0.50;;
75941;SDS011;64622;46.220;19.878;2023-10-09T08:33:58;5.68;;;0.77;;
75941;SDS011;64622;46.220;19.878;2023-10-09T08:36:25;4.03;;;0.50;;
75941;SDS011;64622;46.220;19.878;2023-10-09T08:39:02;3.67;;;0.50;;
75941;SDS011;64622;46.220;19.878;2023-10-09T08:41:43;3.62;;;0.60;;
75941;SDS011;64622;46.220;19.878;2023-10-09T08:44:11;4.43;;;0.80;;
75941;SDS011;64622;46.220;19.878;2023-10-09T08:46:41;4.72;;;0.70;;
75941;SDS011;64622;46.220;19.878;2023-10-09T08:49:09;6.10;;;0.80;;
75941;SDS011;64622;46.220;19.878;2023-10-09T08:51:37;5.30;;;0.90;;
75941;SDS011;64622;46.220;19.878;2023-10-09T08:54:04;5.53;;;0.60;;
75941;SDS011;64622;46.220;19.878;2023-10-09T08:56:37;3.55;;;0.52;;
75941;SDS011;64622;46.220;19.878;2023-10-09T08:59:06;5.05;;;0.68;;
75941;SDS011;64622;46.220;19.878;2023-10-09T09:01:32;5.70;;;0.70;;
75941;SDS011;64622;46.220;19.878;2023-10-09T09:04:00;6.33;;;0.80;;
75941;SDS011;64622;46.220;19.878;2023-10-09T09:06:35;6.60;;;0.80;;
75941;SDS011;64622;46.220;19.878;2023-10-09T09:09:10;5.53;;;1.00;;
75941;SDS011;64622;46.220;19.878;2023-10-09T09:11:41;9.60;;;1.50;;
75941;SDS011;64622;46.220;19.878;2023-10-09T09:14:14;4.12;;;0.62;;
75941;SDS011;64622;46.220;19.878;2023-10-09T09:16:48;4.93;;;0.87;;
75941;SDS011;64622;46.220;19.878;2023-10-09T09:19:15;6.70;;;0.85;;
75941;SDS011;64622;46.220;19.878;2023-10-09T09:21:51;5.03;;;1.00;;
75941;SDS011;64622;46.220;19.878;2023-10-09T09:24:25;4.37;;;0.60;;
75941;SDS011;64622;46.220;19.878;2023-10-09T09:26:53;6.05;;;1.30;;
75941;SDS011;64622;46.220;19.878;2023-10-09T09:32:07;4.90;;;0.70;;
75941;SDS011;64622;46.220;19.878;2023-10-09T09:34:49;6.55;;;0.70;;
75941;SDS011;64622;46.220;19.878;2023-10-09T09:37:31;5.05;;;0.70;;
75941;SDS011;64622;46.220;19.878;2023-10-09T09:40:16;6.18;;;1.15;;
75941;SDS011;64622;46.220;19.878;2023-10-09T09:42:59;4.33;;;0.63;;
75941;SDS011;64622;46.220;19.878;2023-10-09T09:45:37;6.20;;;0.73;;
75941;SDS011;64622;46.220;19.878;2023-10-09T09:48:15;5.00;;;0.80;;
75941;SDS011;64622;46.220;19.878;2023-10-09T09:50:43;6.82;;;1.27;;
75941;SDS011;64622;46.220;19.878;2023-10-09T09:53:11;5.15;;;0.70;;
75941;SDS011;64622;46.220;19.878;2023-10-09T09:55:49;6.73;;;0.80;;
75941;SDS011;64622;46.220;19.878;2023-10-09T09:58:24;5.18;;;0.70;;
75941;SDS011;64622;46.220;19.878;2023-10-09T10:00:56;3.83;;;0.60;;
75941;SDS011;64622;46.220;19.878;2023-10-09T10:03:31;4.55;;;0.50;;
75941;SDS011;64622;46.220;19.878;2023-10-09T10:06:02;4.18;;;0.65;;
75941;SDS011;64622;46.220;19.878;2023-10-09T10:08:36;6.07;;;0.60;;
75941;SDS011;64622;46.220;19.878;2023-10-09T10:11:05;5.22;;;0.80;;
75941;SDS011;64622;46.220;19.878;2023-10-09T10:16:11;7.68;;;1.00;;
75941;SDS011;64622;46.220;19.878;2023-10-09T10:18:54;3.58;;;0.50;;
75941;SDS011;64622;46.220;19.878;2023-10-09T10:21:34;4.33;;;0.60;;
75941;SDS011;64622;46.220;19.878;2023-10-09T10:27:15;5.32;;;0.73;;
75941;SDS011;64622;46.220;19.878;2023-10-09T10:35:19;5.60;;;0.90;;
75941;SDS011;64622;46.220;19.878;2023-10-09T10:37:59;7.07;;;0.98;;
75941;SDS011;64622;46.220;19.878;2023-10-09T10:40:34;7.80;;;0.90;;
75941;SDS011;64622;46.220;19.878;2023-10-09T10:43:15;4.75;;;0.77;;
75941;SDS011;64622;46.220;19.878;2023-10-09T10:46:01;5.35;;;0.77;;
75941;SDS011;64622;46.220;19.878;2023-10-09T10:48:50;6.33;;;0.80;;
75941;SDS011;64622;46.220;19.878;2023-10-09T10:51:40;4.78;;;0.70;;
75941;SDS011;64622;46.220;19.878;2023-10-09T10:54:20;5.62;;;0.70;;
75941;SDS011;64622;46.220;19.878;2023-10-09T10:57:00;5.03;;;0.70;;
75941;SDS011;64622;46.220;19.878;2023-10-09T10:59:30;4.87;;;0.70;;
75941;SDS011;64622;46.220;19.878;2023-10-09T11:02:09;10.93;;;0.80;;
75941;SDS011;64622;46.220;19.878;2023-10-09T11:04:36;4.95;;;0.65;;
75941;SDS011;64622;46.220;19.878;2023-10-09T11:07:11;5.47;;;0.50;;
75941;SDS011;64622;46.220;19.878;2023-10-09T11:09:51;6.45;;;0.73;;
75941;SDS011;64622;46.220;19.878;2023-10-09T11:12:26;3.72;;;0.55;;
75941;SDS011;64622;46.220;19.878;2023-10-09T11:15:05;4.83;;;0.53;;
75941;SDS011;64622;46.220;19.878;2023-10-09T11:17:34;8.32;;;1.00;;
75941;SDS011;64622;46.220;19.878;2023-10-09T11:20:02;6.90;;;0.77;;
75941;SDS011;64622;46.220;19.878;2023-10-09T11:22:56;7.20;;;0.80;;
75941;SDS011;64622;46.220;19.878;2023-10-09T11:25:45;4.40;;;0.80;;
75941;SDS011;64622;46.220;19.878;2023-10-09T11:28:34;5.27;;;0.80;;
75941;SDS011;64622;46.220;19.878;2023-10-09T11:31:15;9.98;;;1.62;;
75941;SDS011;64622;46.220;19.878;2023-10-09T11:33:48;6.85;;;0.90;;
75941;SDS011;64622;46.220;19.878;2023-10-09T11:36:17;9.27;;;1.27;;
75941;SDS011;64622;46.220;19.878;2023-10-09T11:38:58;5.93;;;1.17;;
75941;SDS011;64622;46.220;19.878;2023-10-09T11:41:42;11.47;;;1.20;;
75941;SDS011;64622;46.220;19.878;2023-10-09T11:44:10;5.50;;;1.00;;
75941;SDS011;64622;46.220;19.878;2023-10-09T11:47:00;5.80;;;0.93;;
75941;SDS011;64622;46.220;19.878;2023-10-09T11:49:52;8.52;;;1.40;;
75941;SDS011;64622;46.220;19.878;2023-10-09T11:52:55;7.12;;;1.08;;
75941;SDS011;64622;46.220;19.878;2023-10-09T11:55:35;6.53;;;1.07;;
75941;SDS011;64622;46.220;19.878;2023-10-09T11:58:03;5.47;;;0.80;;
75941;SDS011;64622;46.220;19.878;2023-10-09T12:00:31;4.82;;;0.70;;
75941;SDS011;64622;46.220;19.878;2023-10-09T12:03:11;7.07;;;1.00;;
75941;SDS011;64622;46.220;19.878;2023-10-09T12:05:39;5.50;;;0.60;;
75941;SDS011;64622;46.220;19.878;2023-10-09T12:08:10;6.20;;;0.80;;
75941;SDS011;64622;46.220;19.878;2023-10-09T12:10:40;9.52;;;0.90;;
75941;SDS011;64622;46.220;19.878;2023-10-09T12:13:08;11.25;;;0.77;;
75941;SDS011;64622;46.220;19.878;2023-10-09T12:15:34;6.72;;;0.90;;
75941;SDS011;64622;46.220;19.878;2023-10-09T12:18:05;5.35;;;0.90;;
75941;SDS011;64622;46.220;19.878;2023-10-09T12:20:41;5.13;;;0.73;;
75941;SDS011;64622;46.220;19.878;2023-10-09T12:23:08;6.85;;;1.00;;
75941;SDS011;64622;46.220;19.878;2023-10-09T12:25:39;8.73;;;1.05;;
75941;SDS011;64622;46.220;19.878;2023-10-09T12:28:06;9.40;;;0.90;;
75941;SDS011;64622;46.220;19.878;2023-10-09T12:30:39;7.43;;;0.98;;
75941;SDS011;64622;46.220;19.878;2023-10-09T12:33:06;3.97;;;0.60;;
75941;SDS011;64622;46.220;19.878;2023-10-09T12:35:36;6.35;;;1.17;;
75941;SDS011;64622;46.220;19.878;2023-10-09T12:38:04;6.90;;;0.70;;
75941;SDS011;64622;46.220;19.878;2023-10-09T12:40:35;6.43;;;0.80;;
75941;SDS011;64622;46.220;19.878;2023-10-09T12:43:03;7.43;;;1.35;;
75941;SDS011;64622;46.220;19.878;2023-10-09T12:45:33;11.73;;;1.23;;
75941;SDS011;64622;46.220;19.878;2023-10-09T12:48:00;6.75;;;1.00;;
75941;SDS011;64622;46.220;19.878;2023-10-09T12:50:29;9.75;;;1.10;;
75941;SDS011;64622;46.220;19.878;2023-10-09T12:52:59;6.10;;;1.10;;
75941;SDS011;64622;46.220;19.878;2023-10-09T12:55:36;6.70;;;1.10;;
75941;SDS011;64622;46.220;19.878;2023-10-09T12:58:10;6.83;;;1.10;;
75941;SDS011;64622;46.220;19.878;2023-10-09T13:00:42;6.47;;;1.15;;
75941;SDS011;64622;46.220;19.878;2023-10-09T13:03:15;8.05;;;1.12;;
75941;SDS011;64622;46.220;19.878;2023-10-09T13:05:43;7.03;;;1.30;;
75941;SDS011;64622;46.220;19.878;2023-10-09T13:08:27;11.85;;;1.65;;
75941;SDS011;64622;46.220;19.878;2023-10-09T13:11:02;6.67;;;1.10;;
75941;SDS011;64622;46.220;19.878;2023-10-09T13:13:36;9.45;;;1.02;;
75941;SDS011;64622;46.220;19.878;2023-10-09T13:16:21;5.85;;;1.17;;
75941;SDS011;64622;46.220;19.878;2023-10-09T13:18:52;9.10;;;1.05;;
75941;SDS011;64622;46.220;19.878;2023-10-09T13:21:24;6.78;;;1.10;;
75941;SDS011;64622;46.220;19.878;2023-10-09T13:23:52;6.57;;;1.17;;
75941;SDS011;64622;46.220;19.878;2023-10-09T13:26:24;10.43;;;0.88;;
75941;SDS011;64622;46.220;19.878;2023-10-09T13:28:57;7.05;;;0.90;;
75941;SDS011;64622;46.220;19.878;2023-10-09T13:31:24;8.43;;;1.00;;
75941;SDS011;64622;46.220;19.878;2023-10-09T13:33:53;9.13;;;1.10;;
75941;SDS011;64622;46.220;19.878;2023-10-09T13:36:22;12.53;;;1.30;;
75941;SDS011;64622;46.220;19.878;2023-10-09T13:38:58;11.82;;;1.20;;
75941;SDS011;64622;46.220;19.878;2023-10-09T13:41:44;9.98;;;0.90;;
75941;SDS011;64622;46.220;19.878;2023-10-09T13:44:15;14.02;;;1.05;;
75941;SDS011;64622;46.220;19.878;2023-10-09T13:46:42;6.12;;;1.52;;
75941;SDS011;64622;46.220;19.878;2023-10-09T13:49:08;9.37;;;0.80;;
75941;SDS011;64622;46.220;19.878;2023-10-09T13:51:43;6.22;;;1.20;;
75941;SDS011;64622;46.220;19.878;2023-10-09T13:54:10;15.20;;;1.20;;
75941;SDS011;64622;46.220;19.878;2023-10-09T13:56:49;12.05;;;1.20;;
75941;SDS011;64622;46.220;19.878;2023-10-09T13:59:22;9.38;;;1.08;;
75941;SDS011;64622;46.220;19.878;2023-10-09T14:01:51;9.27;;;1.20;;
75941;SDS011;64622;46.220;19.878;2023-10-09T14:04:25;12.43;;;1.37;;
75941;SDS011;64622;46.220;19.878;2023-10-09T14:06:54;7.80;;;0.95;;
75941;SDS011;64622;46.220;19.878;2023-10-09T14:09:26;5.03;;;0.77;;
75941;SDS011;64622;46.220;19.878;2023-10-09T14:12:11;14.90;;;1.00;;
75941;SDS011;64622;46.220;19.878;2023-10-09T14:14:41;11.83;;;0.90;;
75941;SDS011;64622;46.220;19.878;2023-10-09T14:17:15;9.77;;;1.00;;
75941;SDS011;64622;46.220;19.878;2023-10-09T14:19:50;12.27;;;0.95;;
75941;SDS011;64622;46.220;19.878;2023-10-09T14:22:19;9.55;;;1.05;;
75941;SDS011;64622;46.220;19.878;2023-10-09T14:24:47;6.82;;;0.85;;
75941;SDS011;64622;46.220;19.878;2023-10-09T14:27:14;10.17;;;1.10;;
75941;SDS011;64622;46.220;19.878;2023-10-09T14:29:44;14.40;;;1.15;;
75941;SDS011;64622;46.220;19.878;2023-10-09T14:32:11;15.60;;;1.00;;
75941;SDS011;64622;46.220;19.878;2023-10-09T14:34:41;7.15;;;0.90;;
75941;SDS011;64622;46.220;19.878;2023-10-09T14:37:12;7.10;;;1.20;;
75941;SDS011;64622;46.220;19.878;2023-10-09T14:39:41;6.17;;;0.93;;
75941;SDS011;64622;46.220;19.878;2023-10-09T14:42:17;8.88;;;1.42;;
75941;SDS011;64622;46.220;19.878;2023-10-09T14:44:46;9.48;;;1.67;;
75941;SDS011;64622;46.220;19.878;2023-10-09T14:47:13;14.00;;;2.50;;
75941;SDS011;64622;46.220;19.878;2023-10-09T14:49:47;10.10;;;2.10;;
75941;SDS011;64622;46.220;19.878;2023-10-09T14:52:15;14.20;;;1.77;;
75941;SDS011;64622;46.220;19.878;2023-10-09T14:54:46;15.50;;;1.83;;
75941;SDS011;64622;46.220;19.878;2023-10-09T14:57:13;10.85;;;1.12;;
75941;SDS011;64622;46.220;19.878;2023-10-09T14:59:40;11.32;;;1.30;;
75941;SDS011;64622;46.220;19.878;2023-10-09T15:02:09;10.73;;;1.00;;
75941;SDS011;64622;46.220;19.878;2023-10-09T15:04:35;8.80;;;1.10;;
75941;SDS011;64622;46.220;19.878;2023-10-09T15:07:03;8.52;;;1.17;;
75941;SDS011;64622;46.220;19.878;2023-10-09T15:09:33;20.12;;;1.42;;
75941;SDS011;64622;46.220;19.878;2023-10-09T15:12:02;15.23;;;1.73;;
75941;SDS011;64622;46.220;19.878;2023-10-09T15:14:32;10.02;;;1.87;;
75941;SDS011;64622;46.220;19.878;2023-10-09T15:16:59;14.53;;;1.43;;
75941;SDS011;64622;46.220;19.878;2023-10-09T15:19:27;12.32;;;1.42;;
75941;SDS011;64622;46.220;19.878;2023-10-09T15:21:57;12.05;;;1.67;;
75941;SDS011;64622;46.220;19.878;2023-10-09T15:24:27;14.85;;;1.40;;
75941;SDS011;64622;46.220;19.878;2023-10-09T15:26:54;10.18;;;1.83;;
75941;SDS011;64622;46.220;19.878;2023-10-09T15:29:24;18.67;;;1.67;;
75941;SDS011;64622;46.220;19.878;2023-10-09T15:32:00;12.50;;;2.20;;
75941;SDS011;64622;46.220;19.878;2023-10-09T15:34:31;20.35;;;2.53;;
75941;SDS011;64622;46.220;19.878;2023-10-09T15:36:58;20.67;;;2.40;;
75941;SDS011;64622;46.220;19.878;2023-10-09T15:39:24;13.95;;;2.75;;
75941;SDS011;64622;46.220;19.878;2023-10-09T15:41:51;21.67;;;2.23;;